sensor_id;sensor_type;location;lat;lon;timestamp;pressure;altitude;pressure_sealevel;temperature;humidity
4012;BME280;2020;48.682;9.024;2023-02-26T00:01:11;95861.38;;;-1.24;74.88
4012;BME280;2020;48.682;9.024;2023-02-26T00:03:36;95853.00;;;-1.26;75.13
4012;BME280;2020;48.682;9.024;2023-02-26T00:06:01;95856.66;;;-1.30;75.35
4012;BME280;2020;48.682;9.024;2023-02-26T00:08:27;95863.16;;;-1.39;75.14
4012;BME280;2020;48.682;9.024;2023-02-26T00:10:52;95858.69;;;-1.35;75.90
4012;BME280;2020;48.682;9.024;2023-02-26T00:13:19;95861.41;;;-1.38;74.08
4012;BME280;2020;48.682;9.024;2023-02-26T00:15:44;95866.50;;;-1.66;74.45
4012;BME280;2020;48.682;9.024;2023-02-26T00:18:13;95863.50;;;-1.58;74.45
4012;BME280;2020;48.682;9.024;2023-02-26T00:20:40;95865.69;;;-1.66;74.19
4012;BME280;2020;48.682;9.024;2023-02-26T00:23:10;95859.94;;;-1.70;73.77
4012;BME280;2020;48.682;9.024;2023-02-26T00:25:36;95862.59;;;-1.71;74.08
4012;BME280;2020;48.682;9.024;2023-02-26T00:28:01;95868.97;;;-1.64;74.10
4012;BME280;2020;48.682;9.024;2023-02-26T00:30:27;95872.25;;;-1.62;74.34
4012;BME280;2020;48.682;9.024;2023-02-26T00:32:52;95863.69;;;-1.61;73.43
4012;BME280;2020;48.682;9.024;2023-02-26T00:35:18;95862.41;;;-1.68;73.28
4012;BME280;2020;48.682;9.024;2023-02-26T00:38:05;95865.69;;;-1.66;73.35
4012;BME280;2020;48.682;9.024;2023-02-26T00:43:04;95871.56;;;-1.79;73.47
4012;BME280;2020;48.682;9.024;2023-02-26T00:45:30;95865.72;;;-1.81;73.63
4012;BME280;2020;48.682;9.024;2023-02-26T00:50:44;95868.19;;;-1.94;74.07
4012;BME280;2020;48.682;9.024;2023-02-26T00:53:21;95866.81;;;-1.85;74.70
4012;BME280;2020;48.682;9.024;2023-02-26T00:55:48;95876.47;;;-1.75;74.10
4012;BME280;2020;48.682;9.024;2023-02-26T00:58:14;95873.19;;;-1.78;73.83
4012;BME280;2020;48.682;9.024;2023-02-26T01:00:39;95871.75;;;-1.82;73.14
4012;BME280;2020;48.682;9.024;2023-02-26T01:03:05;95870.28;;;-1.86;73.49
4012;BME280;2020;48.682;9.024;2023-02-26T01:05:30;95877.22;;;-1.88;74.95
4012;BME280;2020;48.682;9.024;2023-02-26T01:08:03;95867.56;;;-1.97;73.46
4012;BME280;2020;48.682;9.024;2023-02-26T01:10:30;95867.66;;;-2.13;73.65
4012;BME280;2020;48.682;9.024;2023-02-26T01:12:55;95860.09;;;-2.15;74.21
4012;BME280;2020;48.682;9.024;2023-02-26T01:15:22;95866.81;;;-2.14;75.45
4012;BME280;2020;48.682;9.024;2023-02-26T01:20:30;95869.56;;;-2.17;74.55
4012;BME280;2020;48.682;9.024;2023-02-26T01:23:03;95865.56;;;-2.21;74.79
4012;BME280;2020;48.682;9.024;2023-02-26T01:25:47;95862.81;;;-2.18;75.52
4012;BME280;2020;48.682;9.024;2023-02-26T01:28:14;95866.66;;;-2.25;74.69
4012;BME280;2020;48.682;9.024;2023-02-26T01:30:40;95860.44;;;-2.36;75.04
4012;BME280;2020;48.682;9.024;2023-02-26T01:33:15;95857.19;;;-2.38;75.17
4012;BME280;2020;48.682;9.024;2023-02-26T01:35:54;95858.28;;;-2.27;74.52
4012;BME280;2020;48.682;9.024;2023-02-26T01:38:27;95854.72;;;-2.25;75.17
4012;BME280;2020;48.682;9.024;2023-02-26T01:41:11;95853.72;;;-2.22;74.63
4012;BME280;2020;48.682;9.024;2023-02-26T01:43:50;95850.63;;;-2.27;74.87
4012;BME280;2020;48.682;9.024;2023-02-26T01:46:27;95862.81;;;-2.32;76.16
4012;BME280;2020;48.682;9.024;2023-02-26T01:48:56;95864.28;;;-2.28;75.82
4012;BME280;2020;48.682;9.024;2023-02-26T01:51:49;95864.19;;;-2.27;76.38
4012;BME280;2020;48.682;9.024;2023-02-26T01:54:18;95870.28;;;-2.44;75.06
4012;BME280;2020;48.682;9.024;2023-02-26T01:56:47;95865.91;;;-2.42;75.28
4012;BME280;2020;48.682;9.024;2023-02-26T01:59:15;95865.19;;;-2.44;75.18
4012;BME280;2020;48.682;9.024;2023-02-26T02:01:41;95871.94;;;-2.43;74.89
4012;BME280;2020;48.682;9.024;2023-02-26T02:04:10;95870.81;;;-2.53;75.36
4012;BME280;2020;48.682;9.024;2023-02-26T02:06:37;95869.34;;;-2.57;75.93
4012;BME280;2020;48.682;9.024;2023-02-26T02:09:07;95869.53;;;-2.60;75.88
4012;BME280;2020;48.682;9.024;2023-02-26T02:11:33;95874.81;;;-2.63;76.16
4012;BME280;2020;48.682;9.024;2023-02-26T02:16:47;95875.91;;;-2.53;75.75
4012;BME280;2020;48.682;9.024;2023-02-26T02:21:49;95875.28;;;-2.57;76.31
4012;BME280;2020;48.682;9.024;2023-02-26T02:31:00;95884.66;;;-2.57;74.97
4012;BME280;2020;48.682;9.024;2023-02-26T02:33:34;95886.47;;;-2.59;75.63
4012;BME280;2020;48.682;9.024;2023-02-26T02:36:05;95891.66;;;-2.61;75.88
4012;BME280;2020;48.682;9.024;2023-02-26T02:38:40;95887.81;;;-2.68;74.18
4012;BME280;2020;48.682;9.024;2023-02-26T02:41:25;95897.19;;;-2.69;75.54
4012;BME280;2020;48.682;9.024;2023-02-26T02:43:52;95898.66;;;-2.65;76.98
4012;BME280;2020;48.682;9.024;2023-02-26T02:46:29;95899.00;;;-2.71;74.92
4012;BME280;2020;48.682;9.024;2023-02-26T02:49:04;95897.72;;;-2.78;74.84
4012;BME280;2020;48.682;9.024;2023-02-26T02:51:40;95909.63;;;-2.79;75.58
4012;BME280;2020;48.682;9.024;2023-02-26T02:54:25;95915.00;;;-2.83;75.69
4012;BME280;2020;48.682;9.024;2023-02-26T02:56:58;95902.25;;;-2.83;76.04
4012;BME280;2020;48.682;9.024;2023-02-26T02:59:37;95903.16;;;-2.84;76.39
4012;BME280;2020;48.682;9.024;2023-02-26T03:02:10;95905.53;;;-2.81;75.73
4012;BME280;2020;48.682;9.024;2023-02-26T03:04:38;95904.44;;;-2.77;76.08
4012;BME280;2020;48.682;9.024;2023-02-26T03:07:05;95911.53;;;-2.82;74.89
4012;BME280;2020;48.682;9.024;2023-02-26T03:09:31;95909.88;;;-2.83;76.42
4012;BME280;2020;48.682;9.024;2023-02-26T03:11:56;95913.00;;;-2.78;76.17
4012;BME280;2020;48.682;9.024;2023-02-26T03:14:22;95909.53;;;-2.77;76.37
4012;BME280;2020;48.682;9.024;2023-02-26T03:19:48;95928.63;;;-2.84;75.62
4012;BME280;2020;48.682;9.024;2023-02-26T03:25:08;95924.13;;;-2.95;77.21
4012;BME280;2020;48.682;9.024;2023-02-26T03:28:06;95927.69;;;-2.98;76.19
4012;BME280;2020;48.682;9.024;2023-02-26T03:30:40;95932.59;;;-2.95;76.67
4012;BME280;2020;48.682;9.024;2023-02-26T03:36:15;95931.88;;;-3.13;76.39
4012;BME280;2020;48.682;9.024;2023-02-26T03:48:42;95944.09;;;-3.03;77.63
4012;BME280;2020;48.682;9.024;2023-02-26T03:51:10;95930.38;;;-3.01;77.79
4012;BME280;2020;48.682;9.024;2023-02-26T03:53:46;95937.38;;;-3.04;77.25
4012;BME280;2020;48.682;9.024;2023-02-26T03:56:19;95937.41;;;-3.20;76.44
4012;BME280;2020;48.682;9.024;2023-02-26T03:58:47;95935.75;;;-3.21;78.47
4012;BME280;2020;48.682;9.024;2023-02-26T04:01:19;95932.31;;;-3.20;78.72
4012;BME280;2020;48.682;9.024;2023-02-26T04:03:51;95940.50;;;-3.15;79.98
4012;BME280;2020;48.682;9.024;2023-02-26T04:06:18;95942.16;;;-3.14;79.27
4012;BME280;2020;48.682;9.024;2023-02-26T04:08:44;95943.78;;;-3.13;79.92
4012;BME280;2020;48.682;9.024;2023-02-26T04:11:12;95948.31;;;-3.18;77.86
4012;BME280;2020;48.682;9.024;2023-02-26T04:13:41;95953.16;;;-3.30;78.57
4012;BME280;2020;48.682;9.024;2023-02-26T04:16:06;95949.84;;;-3.32;78.77
4012;BME280;2020;48.682;9.024;2023-02-26T04:18:32;95955.28;;;-3.38;78.86
4012;BME280;2020;48.682;9.024;2023-02-26T04:20:57;95953.31;;;-3.33;79.33
4012;BME280;2020;48.682;9.024;2023-02-26T04:23:22;95955.84;;;-3.33;79.74
4012;BME280;2020;48.682;9.024;2023-02-26T04:25:47;95950.94;;;-3.36;79.55
4012;BME280;2020;48.682;9.024;2023-02-26T04:28:13;95956.75;;;-3.34;79.90
4012;BME280;2020;48.682;9.024;2023-02-26T04:30:38;95958.56;;;-3.36;78.92
4012;BME280;2020;48.682;9.024;2023-02-26T04:33:03;95960.03;;;-3.32;79.71
4012;BME280;2020;48.682;9.024;2023-02-26T04:35:29;95959.41;;;-3.35;80.76
4012;BME280;2020;48.682;9.024;2023-02-26T04:37:54;95965.00;;;-3.29;79.79
4012;BME280;2020;48.682;9.024;2023-02-26T04:40:19;95962.84;;;-3.36;79.48
4012;BME280;2020;48.682;9.024;2023-02-26T04:42:45;95962.84;;;-3.36;80.18
4012;BME280;2020;48.682;9.024;2023-02-26T04:45:10;95962.91;;;-3.38;80.12
4012;BME280;2020;48.682;9.024;2023-02-26T04:47:35;95962.50;;;-3.46;78.97
4012;BME280;2020;48.682;9.024;2023-02-26T04:50:01;95972.84;;;-3.49;79.48
4012;BME280;2020;48.682;9.024;2023-02-26T04:52:26;95969.31;;;-3.47;80.09
4012;BME280;2020;48.682;9.024;2023-02-26T04:54:51;95966.44;;;-3.57;79.65
4012;BME280;2020;48.682;9.024;2023-02-26T04:57:17;95973.00;;;-3.53;79.78
4012;BME280;2020;48.682;9.024;2023-02-26T04:59:42;95972.25;;;-3.55;80.58
4012;BME280;2020;48.682;9.024;2023-02-26T05:02:07;95968.06;;;-3.56;80.54
4012;BME280;2020;48.682;9.024;2023-02-26T05:04:32;95976.78;;;-3.60;80.22
4012;BME280;2020;48.682;9.024;2023-02-26T05:06:58;95982.66;;;-3.75;80.70
4012;BME280;2020;48.682;9.024;2023-02-26T05:09:23;95975.59;;;-3.70;80.52
4012;BME280;2020;48.682;9.024;2023-02-26T05:11:48;95982.34;;;-3.69;81.16
4012;BME280;2020;48.682;9.024;2023-02-26T05:14:15;95984.13;;;-3.71;80.81
4012;BME280;2020;48.682;9.024;2023-02-26T05:16:40;95989.22;;;-3.71;81.14
4012;BME280;2020;48.682;9.024;2023-02-26T05:19:06;95994.09;;;-3.67;81.16
4012;BME280;2020;48.682;9.024;2023-02-26T05:21:31;95989.38;;;-3.74;80.82
4012;BME280;2020;48.682;9.024;2023-02-26T05:23:56;95995.97;;;-3.70;81.07
4012;BME280;2020;48.682;9.024;2023-02-26T05:26:22;95992.09;;;-3.77;80.74
4012;BME280;2020;48.682;9.024;2023-02-26T05:28:47;95991.19;;;-3.76;81.29
4012;BME280;2020;48.682;9.024;2023-02-26T05:31:13;95992.66;;;-3.72;81.89
4012;BME280;2020;48.682;9.024;2023-02-26T05:33:39;95993.16;;;-3.82;81.43
4012;BME280;2020;48.682;9.024;2023-02-26T05:36:04;95991.81;;;-3.89;80.38
4012;BME280;2020;48.682;9.024;2023-02-26T05:38:31;96002.88;;;-3.90;81.40
4012;BME280;2020;48.682;9.024;2023-02-26T05:40:57;96004.09;;;-3.97;81.03
4012;BME280;2020;48.682;9.024;2023-02-26T05:43:23;96002.31;;;-3.95;81.36
4012;BME280;2020;48.682;9.024;2023-02-26T05:45:49;96010.66;;;-3.93;81.09
4012;BME280;2020;48.682;9.024;2023-02-26T05:48:14;96014.25;;;-3.97;81.71
4012;BME280;2020;48.682;9.024;2023-02-26T05:50:40;96010.03;;;-3.97;81.43
4012;BME280;2020;48.682;9.024;2023-02-26T05:53:05;96013.69;;;-4.02;82.18
4012;BME280;2020;48.682;9.024;2023-02-26T05:55:30;96018.00;;;-4.04;80.91
4012;BME280;2020;48.682;9.024;2023-02-26T05:57:56;96024.06;;;-4.07;81.91
4012;BME280;2020;48.682;9.024;2023-02-26T06:00:21;96031.94;;;-4.12;82.04
4012;BME280;2020;48.682;9.024;2023-02-26T06:02:46;96035.22;;;-4.09;81.81
4012;BME280;2020;48.682;9.024;2023-02-26T06:05:12;96035.22;;;-4.09;81.80
4012;BME280;2020;48.682;9.024;2023-02-26T06:07:37;96037.00;;;-4.12;82.29
4012;BME280;2020;48.682;9.024;2023-02-26T06:10:03;96034.19;;;-4.23;81.99
4012;BME280;2020;48.682;9.024;2023-02-26T06:12:28;96046.13;;;-4.25;82.59
4012;BME280;2020;48.682;9.024;2023-02-26T06:14:53;96052.72;;;-4.21;83.29
4012;BME280;2020;48.682;9.024;2023-02-26T06:17:19;96057.94;;;-4.24;83.00
4012;BME280;2020;48.682;9.024;2023-02-26T06:19:44;96061.53;;;-4.28;82.97
4012;BME280;2020;48.682;9.024;2023-02-26T06:22:09;96062.28;;;-4.26;83.67
4012;BME280;2020;48.682;9.024;2023-02-26T06:24:34;96076.38;;;-4.38;83.24
4012;BME280;2020;48.682;9.024;2023-02-26T06:27:00;96077.09;;;-4.34;83.23
4012;BME280;2020;48.682;9.024;2023-02-26T06:29:25;96082.16;;;-4.34;83.24
4012;BME280;2020;48.682;9.024;2023-02-26T06:31:50;96081.69;;;-4.43;83.20
4012;BME280;2020;48.682;9.024;2023-02-26T06:34:16;96084.69;;;-4.52;83.75
4012;BME280;2020;48.682;9.024;2023-02-26T06:36:41;96085.56;;;-4.53;84.56
4012;BME280;2020;48.682;9.024;2023-02-26T06:39:06;96089.63;;;-4.49;84.68
4012;BME280;2020;48.682;9.024;2023-02-26T06:41:32;96096.41;;;-4.49;84.47
4012;BME280;2020;48.682;9.024;2023-02-26T06:43:57;96087.13;;;-4.50;84.51
4012;BME280;2020;48.682;9.024;2023-02-26T06:46:22;96088.53;;;-4.62;84.69
4012;BME280;2020;48.682;9.024;2023-02-26T06:48:48;96100.22;;;-4.58;84.99
4012;BME280;2020;48.682;9.024;2023-02-26T06:51:13;96103.34;;;-4.53;84.90
4012;BME280;2020;48.682;9.024;2023-02-26T06:53:38;96112.25;;;-4.44;84.89
4012;BME280;2020;48.682;9.024;2023-02-26T06:56:04;96114.44;;;-4.36;84.58
4012;BME280;2020;48.682;9.024;2023-02-26T06:58:29;96117.75;;;-4.34;84.66
4012;BME280;2020;48.682;9.024;2023-02-26T07:00:55;96126.03;;;-4.31;84.22
4012;BME280;2020;48.682;9.024;2023-02-26T07:03:20;96122.59;;;-4.30;83.61
4012;BME280;2020;48.682;9.024;2023-02-26T07:05:45;96123.88;;;-4.21;84.20
4012;BME280;2020;48.682;9.024;2023-02-26T07:08:12;96135.75;;;-4.21;84.13
4012;BME280;2020;48.682;9.024;2023-02-26T07:10:38;96132.16;;;-4.35;84.45
4012;BME280;2020;48.682;9.024;2023-02-26T07:13:04;96136.28;;;-4.32;84.46
4012;BME280;2020;48.682;9.024;2023-02-26T07:15:30;96138.06;;;-4.34;84.68
4012;BME280;2020;48.682;9.024;2023-02-26T07:17:55;96140.47;;;-4.31;84.82
4012;BME280;2020;48.682;9.024;2023-02-26T07:20:20;96144.50;;;-4.27;85.17
4012;BME280;2020;48.682;9.024;2023-02-26T07:22:47;96145.88;;;-4.20;85.07
4012;BME280;2020;48.682;9.024;2023-02-26T07:25:13;96154.25;;;-4.18;85.01
4012;BME280;2020;48.682;9.024;2023-02-26T07:27:38;96155.75;;;-4.14;84.71
4012;BME280;2020;48.682;9.024;2023-02-26T07:30:05;96154.47;;;-4.05;84.72
4012;BME280;2020;48.682;9.024;2023-02-26T07:32:30;96154.31;;;-4.02;84.60
4012;BME280;2020;48.682;9.024;2023-02-26T07:34:56;96161.31;;;-3.88;84.90
4012;BME280;2020;48.682;9.024;2023-02-26T07:37:21;96147.63;;;-3.68;84.79
4012;BME280;2020;48.682;9.024;2023-02-26T07:39:46;96162.91;;;-3.68;83.43
4012;BME280;2020;48.682;9.024;2023-02-26T07:42:12;96158.00;;;-3.55;83.41
4012;BME280;2020;48.682;9.024;2023-02-26T07:44:37;96153.69;;;-3.70;83.32
4012;BME280;2020;48.682;9.024;2023-02-26T07:47:02;96161.91;;;-3.65;83.39
4012;BME280;2020;48.682;9.024;2023-02-26T07:49:28;96155.16;;;-3.66;83.31
4012;BME280;2020;48.682;9.024;2023-02-26T07:51:53;96152.75;;;-3.52;84.13
4012;BME280;2020;48.682;9.024;2023-02-26T07:54:18;96156.94;;;-3.33;83.28
4012;BME280;2020;48.682;9.024;2023-02-26T07:56:44;96158.69;;;-2.84;82.75
4012;BME280;2020;48.682;9.024;2023-02-26T07:59:09;96153.78;;;-2.71;81.63
4012;BME280;2020;48.682;9.024;2023-02-26T08:01:35;96162.50;;;-2.75;80.32
4012;BME280;2020;48.682;9.024;2023-02-26T08:04:01;96157.88;;;-2.84;80.64
4012;BME280;2020;48.682;9.024;2023-02-26T08:06:27;96167.81;;;-2.96;80.49
4012;BME280;2020;48.682;9.024;2023-02-26T08:08:52;96166.75;;;-2.91;80.93
4012;BME280;2020;48.682;9.024;2023-02-26T08:11:17;96163.41;;;-2.76;81.81
4012;BME280;2020;48.682;9.024;2023-02-26T08:13:43;96167.28;;;-2.69;81.34
4012;BME280;2020;48.682;9.024;2023-02-26T08:16:08;96161.00;;;-2.79;79.98
4012;BME280;2020;48.682;9.024;2023-02-26T08:18:33;96172.97;;;-2.97;81.09
4012;BME280;2020;48.682;9.024;2023-02-26T08:20:58;96167.06;;;-2.98;80.55
4012;BME280;2020;48.682;9.024;2023-02-26T08:23:24;96169.19;;;-3.06;81.97
4012;BME280;2020;48.682;9.024;2023-02-26T08:25:58;96167.38;;;-3.04;84.17
4012;BME280;2020;48.682;9.024;2023-02-26T08:28:24;96172.41;;;-3.20;86.13
4012;BME280;2020;48.682;9.024;2023-02-26T08:30:51;96177.59;;;-3.39;85.28
4012;BME280;2020;48.682;9.024;2023-02-26T08:33:17;96168.97;;;-3.19;85.28
4012;BME280;2020;48.682;9.024;2023-02-26T08:35:43;96172.00;;;-2.79;85.29
4012;BME280;2020;48.682;9.024;2023-02-26T08:38:08;96177.97;;;-2.62;84.55
4012;BME280;2020;48.682;9.024;2023-02-26T08:40:33;96165.78;;;-2.73;83.28
4012;BME280;2020;48.682;9.024;2023-02-26T08:42:59;96173.00;;;-2.81;82.98
4012;BME280;2020;48.682;9.024;2023-02-26T08:45:24;96175.78;;;-3.02;81.26
4012;BME280;2020;48.682;9.024;2023-02-26T08:47:49;96167.16;;;-2.67;82.67
4012;BME280;2020;48.682;9.024;2023-02-26T08:50:16;96176.97;;;-2.59;81.97
4012;BME280;2020;48.682;9.024;2023-02-26T08:52:41;96179.06;;;-3.00;80.69
4012;BME280;2020;48.682;9.024;2023-02-26T08:55:07;96181.59;;;-3.00;81.52
4012;BME280;2020;48.682;9.024;2023-02-26T08:57:32;96179.59;;;-2.77;82.99
4012;BME280;2020;48.682;9.024;2023-02-26T08:59:57;96195.50;;;-2.89;81.59
4012;BME280;2020;48.682;9.024;2023-02-26T09:02:23;96188.78;;;-2.90;80.99
4012;BME280;2020;48.682;9.024;2023-02-26T09:04:48;96198.41;;;-3.13;80.83
4012;BME280;2020;48.682;9.024;2023-02-26T09:07:13;96196.44;;;-3.08;82.27
4012;BME280;2020;48.682;9.024;2023-02-26T09:09:38;96198.09;;;-3.07;83.32
4012;BME280;2020;48.682;9.024;2023-02-26T09:12:04;96206.75;;;-2.94;84.52
4012;BME280;2020;48.682;9.024;2023-02-26T09:14:29;96206.44;;;-2.87;83.21
4012;BME280;2020;48.682;9.024;2023-02-26T09:16:54;96203.91;;;-2.87;82.11
4012;BME280;2020;48.682;9.024;2023-02-26T09:19:20;96208.47;;;-2.94;82.69
4012;BME280;2020;48.682;9.024;2023-02-26T09:21:46;96215.88;;;-2.89;83.34
4012;BME280;2020;48.682;9.024;2023-02-26T09:24:12;96217.00;;;-2.95;81.67
4012;BME280;2020;48.682;9.024;2023-02-26T09:26:37;96226.84;;;-3.05;83.10
4012;BME280;2020;48.682;9.024;2023-02-26T09:29:03;96223.56;;;-3.07;84.57
4012;BME280;2020;48.682;9.024;2023-02-26T09:31:28;96228.66;;;-3.07;83.43
4012;BME280;2020;48.682;9.024;2023-02-26T09:33:53;96229.69;;;-2.94;85.23
4012;BME280;2020;48.682;9.024;2023-02-26T09:36:19;96236.13;;;-3.04;83.21
4012;BME280;2020;48.682;9.024;2023-02-26T09:38:44;96231.78;;;-3.02;83.90
4012;BME280;2020;48.682;9.024;2023-02-26T09:41:43;96223.72;;;-3.10;83.05
4012;BME280;2020;48.682;9.024;2023-02-26T09:44:29;96237.47;;;-2.97;83.71
4012;BME280;2020;48.682;9.024;2023-02-26T09:47:20;96243.00;;;-2.88;84.20
4012;BME280;2020;48.682;9.024;2023-02-26T09:49:54;96245.88;;;-2.95;82.50
4012;BME280;2020;48.682;9.024;2023-02-26T09:52:27;96246.63;;;-2.92;83.09
4012;BME280;2020;48.682;9.024;2023-02-26T09:55:00;96246.66;;;-2.94;83.61
4012;BME280;2020;48.682;9.024;2023-02-26T09:57:32;96253.81;;;-3.01;83.17
4012;BME280;2020;48.682;9.024;2023-02-26T09:59:58;96257.75;;;-2.95;83.58
4012;BME280;2020;48.682;9.024;2023-02-26T10:02:51;96258.44;;;-2.91;83.26
4012;BME280;2020;48.682;9.024;2023-02-26T10:05:31;96255.88;;;-2.74;84.15
4012;BME280;2020;48.682;9.024;2023-02-26T10:08:04;96253.19;;;-2.88;81.88
4012;BME280;2020;48.682;9.024;2023-02-26T10:10:50;96260.09;;;-2.90;82.52
4012;BME280;2020;48.682;9.024;2023-02-26T10:13:24;96254.69;;;-2.84;83.22
4012;BME280;2020;48.682;9.024;2023-02-26T10:15:56;96263.22;;;-2.85;82.92
4012;BME280;2020;48.682;9.024;2023-02-26T10:18:30;96266.38;;;-2.80;83.57
4012;BME280;2020;48.682;9.024;2023-02-26T10:21:03;96271.16;;;-2.74;83.88
4012;BME280;2020;48.682;9.024;2023-02-26T10:23:49;96270.88;;;-2.85;84.00
4012;BME280;2020;48.682;9.024;2023-02-26T10:28:47;96276.25;;;-2.74;84.68
4012;BME280;2020;48.682;9.024;2023-02-26T10:31:24;96279.69;;;-2.75;83.36
4012;BME280;2020;48.682;9.024;2023-02-26T10:39:30;96279.53;;;-2.72;84.75
4012;BME280;2020;48.682;9.024;2023-02-26T10:42:04;96286.75;;;-2.80;83.72
4012;BME280;2020;48.682;9.024;2023-02-26T10:45:17;96283.47;;;-2.82;84.62
4012;BME280;2020;48.682;9.024;2023-02-26T10:48:26;96282.00;;;-2.70;85.19
4012;BME280;2020;48.682;9.024;2023-02-26T10:50:57;96283.41;;;-2.65;84.17
4012;BME280;2020;48.682;9.024;2023-02-26T10:53:25;96286.81;;;-2.48;85.81
4012;BME280;2020;48.682;9.024;2023-02-26T10:55:59;96280.34;;;-2.54;83.98
4012;BME280;2020;48.682;9.024;2023-02-26T10:58:27;96286.34;;;-2.55;84.44
4012;BME280;2020;48.682;9.024;2023-02-26T11:00:53;96281.72;;;-2.48;84.57
4012;BME280;2020;48.682;9.024;2023-02-26T11:03:40;96286.81;;;-2.48;84.50
4012;BME280;2020;48.682;9.024;2023-02-26T11:06:07;96279.59;;;-2.40;84.82
4012;BME280;2020;48.682;9.024;2023-02-26T11:08:40;96274.34;;;-2.37;84.72
4012;BME280;2020;48.682;9.024;2023-02-26T11:11:06;96282.56;;;-2.31;83.71
4012;BME280;2020;48.682;9.024;2023-02-26T11:13:33;96280.44;;;-2.39;82.27
4012;BME280;2020;48.682;9.024;2023-02-26T11:16:03;96277.97;;;-2.41;82.84
4012;BME280;2020;48.682;9.024;2023-02-26T11:18:39;96275.84;;;-2.32;83.14
4012;BME280;2020;48.682;9.024;2023-02-26T11:21:06;96269.44;;;-2.24;81.92
4012;BME280;2020;48.682;9.024;2023-02-26T11:23:33;96275.84;;;-2.00;82.70
4012;BME280;2020;48.682;9.024;2023-02-26T11:26:03;96275.84;;;-2.00;80.89
4012;BME280;2020;48.682;9.024;2023-02-26T11:28:35;96285.91;;;-1.97;80.32
4012;BME280;2020;48.682;9.024;2023-02-26T11:31:05;96285.41;;;-1.88;82.52
4012;BME280;2020;48.682;9.024;2023-02-26T11:33:44;96284.09;;;-1.95;81.22
4012;BME280;2020;48.682;9.024;2023-02-26T11:36:15;96282.75;;;-2.02;80.28
4012;BME280;2020;48.682;9.024;2023-02-26T11:38:50;96281.28;;;-2.07;80.05
4012;BME280;2020;48.682;9.024;2023-02-26T11:41:16;96282.47;;;-1.96;80.47
4012;BME280;2020;48.682;9.024;2023-02-26T11:43:45;96278.16;;;-1.96;80.30
4012;BME280;2020;48.682;9.024;2023-02-26T11:46:12;96282.47;;;-1.96;80.27
4012;BME280;2020;48.682;9.024;2023-02-26T11:51:04;96279.78;;;-2.11;79.32
4012;BME280;2020;48.682;9.024;2023-02-26T11:53:33;96283.56;;;-2.18;80.22
4012;BME280;2020;48.682;9.024;2023-02-26T11:56:42;96291.81;;;-2.13;80.26
4012;BME280;2020;48.682;9.024;2023-02-26T11:58:51;96292.81;;;-2.15;80.12
4012;BME280;2020;48.682;9.024;2023-02-26T12:01:17;96290.00;;;-2.11;79.62
4012;BME280;2020;48.682;9.024;2023-02-26T12:03:46;96284.72;;;-2.08;79.69
4012;BME280;2020;48.682;9.024;2023-02-26T12:06:20;96273.94;;;-2.13;78.45
4012;BME280;2020;48.682;9.024;2023-02-26T12:08:47;96284.91;;;-2.11;78.99
4012;BME280;2020;48.682;9.024;2023-02-26T12:14:17;96269.53;;;-1.93;79.11
4012;BME280;2020;48.682;9.024;2023-02-26T12:19:56;96281.78;;;-1.84;77.36
4012;BME280;2020;48.682;9.024;2023-02-26T12:28:07;96275.66;;;-2.29;79.32
4012;BME280;2020;48.682;9.024;2023-02-26T12:30:53;96279.28;;;-2.33;81.01
4012;BME280;2020;48.682;9.024;2023-02-26T12:33:32;96295.91;;;-2.26;80.89
4012;BME280;2020;48.682;9.024;2023-02-26T12:36:18;96288.84;;;-2.21;80.49
4012;BME280;2020;48.682;9.024;2023-02-26T12:47:23;96295.47;;;-1.85;79.51
4012;BME280;2020;48.682;9.024;2023-02-26T12:50:05;96297.91;;;-1.99;78.75
4012;BME280;2020;48.682;9.024;2023-02-26T12:52:39;96306.00;;;-1.91;79.63
4012;BME280;2020;48.682;9.024;2023-02-26T12:58:29;96300.38;;;-2.14;78.73
4012;BME280;2020;48.682;9.024;2023-02-26T13:18:02;96312.72;;;-1.74;76.71
4012;BME280;2020;48.682;9.024;2023-02-26T13:20:31;96312.09;;;-1.78;76.98
4012;BME280;2020;48.682;9.024;2023-02-26T13:23:02;96310.28;;;-1.75;76.86
4012;BME280;2020;48.682;9.024;2023-02-26T13:28:18;96309.94;;;-1.69;77.78
4012;BME280;2020;48.682;9.024;2023-02-26T13:30:49;96299.41;;;-1.63;77.65
4012;BME280;2020;48.682;9.024;2023-02-26T13:33:20;96305.25;;;-1.61;77.79
4012;BME280;2020;48.682;9.024;2023-02-26T13:35:48;96307.63;;;-1.58;77.83
4012;BME280;2020;48.682;9.024;2023-02-26T13:38:23;96311.75;;;-1.71;76.75
4012;BME280;2020;48.682;9.024;2023-02-26T13:41:10;96303.34;;;-1.73;76.86
4012;BME280;2020;48.682;9.024;2023-02-26T13:44:00;96305.91;;;-1.89;75.13
4012;BME280;2020;48.682;9.024;2023-02-26T13:46:41;96308.97;;;-1.83;75.97
4012;BME280;2020;48.682;9.024;2023-02-26T13:51:46;96315.78;;;-1.83;74.49
4012;BME280;2020;48.682;9.024;2023-02-26T14:04:54;96310.91;;;-1.56;70.61
4012;BME280;2020;48.682;9.024;2023-02-26T14:07:48;96315.69;;;-1.50;69.51
4012;BME280;2020;48.682;9.024;2023-02-26T14:10:44;96324.72;;;-1.28;70.17
4012;BME280;2020;48.682;9.024;2023-02-26T14:13:18;96317.25;;;-1.16;69.29
4012;BME280;2020;48.682;9.024;2023-02-26T14:15:52;96318.28;;;-1.19;69.67
4012;BME280;2020;48.682;9.024;2023-02-26T14:18:35;96319.28;;;-1.07;70.43
4012;BME280;2020;48.682;9.024;2023-02-26T14:24:04;96318.22;;;-1.03;67.82
4012;BME280;2020;48.682;9.024;2023-02-26T14:26:35;96313.63;;;-1.12;65.84
4012;BME280;2020;48.682;9.024;2023-02-26T14:32:04;96329.91;;;-0.99;67.11
4012;BME280;2020;48.682;9.024;2023-02-26T14:34:33;96335.34;;;-1.05;68.58
4012;BME280;2020;48.682;9.024;2023-02-26T14:37:03;96324.97;;;-1.02;67.52
4012;BME280;2020;48.682;9.024;2023-02-26T14:39:44;96333.03;;;-0.94;68.50
4012;BME280;2020;48.682;9.024;2023-02-26T14:42:15;96340.00;;;-0.67;66.15
4012;BME280;2020;48.682;9.024;2023-02-26T14:44:46;96334.47;;;-0.45;66.11
4012;BME280;2020;48.682;9.024;2023-02-26T14:47:12;96338.13;;;-0.49;64.51
4012;BME280;2020;48.682;9.024;2023-02-26T14:49:41;96336.22;;;-0.31;65.67
4012;BME280;2020;48.682;9.024;2023-02-26T14:52:26;96337.31;;;-0.49;64.80
4012;BME280;2020;48.682;9.024;2023-02-26T14:57:48;96345.47;;;0.01;63.56
4012;BME280;2020;48.682;9.024;2023-02-26T15:00:38;96337.66;;;0.17;64.10
4012;BME280;2020;48.682;9.024;2023-02-26T15:12:11;96352.84;;;-0.23;61.89
4012;BME280;2020;48.682;9.024;2023-02-26T15:14:51;96336.91;;;0.15;61.17
4012;BME280;2020;48.682;9.024;2023-02-26T15:17:34;96354.66;;;0.04;60.23
4012;BME280;2020;48.682;9.024;2023-02-26T15:20:23;96349.91;;;-0.03;59.92
4012;BME280;2020;48.682;9.024;2023-02-26T15:25:40;96356.22;;;0.21;59.75
4012;BME280;2020;48.682;9.024;2023-02-26T15:28:12;96359.06;;;0.02;59.10
4012;BME280;2020;48.682;9.024;2023-02-26T15:30:47;96350.97;;;0.37;59.45
4012;BME280;2020;48.682;9.024;2023-02-26T15:33:13;96353.75;;;0.19;59.91
4012;BME280;2020;48.682;9.024;2023-02-26T15:35:43;96359.44;;;-0.19;59.48
4012;BME280;2020;48.682;9.024;2023-02-26T15:38:09;96365.09;;;-0.28;60.33
4012;BME280;2020;48.682;9.024;2023-02-26T15:40:35;96358.03;;;-0.39;59.53
4012;BME280;2020;48.682;9.024;2023-02-26T15:43:02;96368.19;;;-0.52;61.73